createdAt,value
2017-11-12T00:02:03.945Z,0.60
2017-11-12T00:04:31.398Z,0.90
2017-11-12T00:06:58.875Z,0.50
2017-11-12T00:09:26.325Z,1.17
2017-11-12T00:11:53.791Z,2.30
2017-11-12T00:14:21.246Z,0.73
2017-11-12T00:16:48.707Z,0.93
2017-11-12T00:19:16.196Z,0.80
2017-11-12T00:21:43.651Z,4.20
2017-11-12T00:24:11.656Z,1.20
2017-11-12T00:26:39.123Z,0.67
2017-11-12T00:29:06.575Z,4.67
2017-11-12T00:31:34.160Z,0.73
2017-11-12T00:34:01.616Z,1.77
2017-11-12T00:36:29.075Z,0.70
2017-11-12T00:38:56.556Z,0.50
2017-11-12T00:41:24.033Z,0.70
2017-11-12T00:43:51.498Z,0.93
2017-11-12T00:46:18.974Z,1.27
2017-11-12T00:48:46.426Z,1.00
2017-11-12T00:51:13.897Z,0.80
2017-11-12T00:53:41.373Z,0.87
2017-11-12T00:56:09.131Z,0.60
2017-11-12T00:58:36.590Z,1.80
2017-11-12T01:01:04.044Z,0.60
2017-11-12T01:03:31.518Z,0.90
2017-11-12T01:05:58.989Z,0.93
2017-11-12T01:08:26.468Z,0.77
2017-11-12T01:10:53.926Z,1.00
2017-11-12T01:13:21.404Z,1.30
2017-11-12T01:15:48.867Z,0.90
2017-11-12T01:18:16.335Z,2.63
2017-11-12T01:20:43.810Z,0.87
2017-11-12T01:23:11.258Z,0.80
2017-11-12T01:25:38.704Z,0.60
2017-11-12T01:28:06.174Z,6.33
2017-11-12T01:30:33.622Z,0.70
2017-11-12T01:33:01.096Z,0.80
2017-11-12T01:35:28.575Z,0.90
2017-11-12T01:37:56.019Z,1.40
2017-11-12T01:40:23.471Z,2.80
2017-11-12T01:42:50.954Z,1.47
2017-11-12T01:45:18.441Z,2.25
2017-11-12T01:47:45.901Z,2.42
2017-11-12T01:50:13.380Z,2.00
2017-11-12T01:52:40.844Z,4.80
2017-11-12T01:55:08.333Z,3.97
2017-11-12T01:57:35.789Z,11.53
2017-11-12T02:00:03.247Z,9.20
2017-11-12T02:02:30.730Z,2.33
2017-11-12T02:04:58.209Z,1.80
2017-11-12T02:07:25.657Z,1.13
2017-11-12T02:09:53.122Z,1.43
2017-11-12T02:12:20.595Z,1.53
2017-11-12T02:14:48.043Z,1.80
2017-11-12T02:17:15.508Z,1.97
2017-11-12T02:19:42.988Z,2.07
2017-11-12T02:22:10.842Z,1.90
2017-11-12T02:24:38.300Z,1.90
2017-11-12T02:27:05.755Z,2.80
2017-11-12T02:29:33.225Z,8.97
2017-11-12T02:32:00.670Z,2.40
2017-11-12T02:34:28.152Z,1.70
2017-11-12T02:36:55.616Z,1.80
2017-11-12T02:39:23.089Z,1.60
2017-11-12T02:41:50.542Z,1.93
2017-11-12T02:44:18.014Z,2.00
2017-11-12T02:46:45.471Z,1.53
2017-11-12T02:49:12.929Z,1.80
2017-11-12T02:51:40.423Z,1.40
2017-11-12T02:54:07.882Z,1.20
2017-11-12T02:56:35.361Z,1.47
2017-11-12T02:59:02.847Z,4.40
2017-11-12T03:01:30.322Z,1.23
2017-11-12T03:03:57.960Z,3.80
2017-11-12T03:06:25.409Z,1.23
2017-11-12T03:08:52.859Z,3.70
2017-11-12T03:11:20.401Z,0.70
2017-11-12T03:13:47.866Z,0.60
2017-11-12T03:16:15.353Z,0.53
2017-11-12T03:18:42.831Z,0.80
2017-11-12T03:21:10.308Z,1.27
2017-11-12T03:23:37.770Z,0.65
2017-11-12T03:26:05.247Z,0.40
2017-11-12T03:28:32.694Z,4.10
2017-11-12T03:31:00.172Z,0.50
2017-11-12T03:33:27.645Z,0.50
2017-11-12T03:35:55.110Z,0.60
2017-11-12T03:38:22.560Z,0.50
2017-11-12T03:40:50.030Z,0.73
2017-11-12T03:43:17.486Z,0.40
2017-11-12T03:45:44.955Z,0.50
2017-11-12T03:48:12.403Z,0.60
2017-11-12T03:50:40.028Z,0.50
2017-11-12T03:53:07.480Z,0.50
2017-11-12T03:55:34.931Z,1.10
2017-11-12T03:58:02.406Z,0.93
2017-11-12T04:00:29.926Z,0.70
2017-11-12T04:02:57.396Z,0.60
2017-11-12T04:05:24.842Z,0.40
2017-11-12T04:07:52.287Z,0.60
2017-11-12T04:10:19.774Z,0.90
2017-11-12T04:12:47.248Z,0.70
2017-11-12T04:15:14.708Z,0.80
2017-11-12T04:17:42.195Z,0.60
2017-11-12T04:20:09.645Z,0.80
2017-11-12T04:22:37.127Z,0.60
2017-11-12T04:25:04.589Z,1.23
2017-11-12T04:27:32.221Z,0.60
2017-11-12T04:29:59.670Z,0.67
2017-11-12T04:32:27.122Z,1.27
2017-11-12T04:34:54.596Z,0.60
2017-11-12T04:37:22.071Z,0.80
2017-11-12T04:39:49.519Z,0.57
2017-11-12T04:42:17.012Z,0.57
2017-11-12T04:44:44.462Z,0.80
2017-11-12T04:47:11.926Z,0.70
2017-11-12T04:49:39.399Z,0.63
2017-11-12T04:52:06.850Z,0.70
2017-11-12T04:54:34.295Z,0.80
2017-11-12T04:57:01.771Z,0.87
2017-11-12T04:59:29.263Z,0.80
2017-11-12T05:01:58.618Z,1.20
2017-11-12T05:04:26.167Z,1.60
2017-11-12T05:06:53.634Z,2.30
2017-11-12T05:09:21.112Z,2.30
2017-11-12T05:11:48.567Z,2.87
2017-11-12T05:14:16.024Z,2.67
2017-11-12T05:16:43.506Z,4.13
2017-11-12T05:19:10.980Z,5.70
2017-11-12T05:21:38.473Z,3.77
2017-11-12T05:24:05.946Z,3.13
2017-11-12T05:26:33.400Z,4.13
2017-11-12T05:29:00.877Z,4.27
2017-11-12T05:31:28.327Z,6.60
2017-11-12T05:33:55.798Z,3.20
2017-11-12T05:36:23.280Z,4.60
2017-11-12T05:38:50.727Z,3.87
2017-11-12T05:41:18.477Z,4.00
2017-11-12T05:43:45.932Z,5.63
2017-11-12T05:46:13.377Z,5.03
2017-11-12T05:48:40.915Z,4.90
2017-11-12T05:51:08.643Z,5.90
2017-11-12T05:53:36.140Z,5.13
2017-11-12T05:56:03.608Z,5.87
2017-11-12T05:58:31.064Z,6.73
2017-11-12T06:00:58.511Z,7.17
2017-11-12T06:03:25.991Z,13.23
2017-11-12T06:05:53.453Z,9.00
2017-11-12T06:08:20.933Z,6.93
2017-11-12T06:10:48.420Z,7.93
2017-11-12T06:13:15.938Z,6.13
2017-11-12T06:15:43.412Z,9.77
2017-11-12T06:18:10.871Z,9.50
2017-11-12T06:20:38.371Z,10.13
2017-11-12T06:23:05.833Z,12.73
2017-11-12T06:25:33.304Z,9.47
2017-11-12T06:28:00.756Z,9.47
2017-11-12T06:30:28.213Z,12.97
2017-11-12T06:32:55.720Z,10.10
2017-11-12T06:35:23.176Z,13.03
2017-11-12T06:37:50.648Z,10.10
2017-11-12T06:40:18.110Z,10.40
2017-11-12T06:42:45.580Z,14.00
2017-11-12T06:45:13.059Z,12.70
2017-11-12T06:47:40.544Z,12.73
2017-11-12T06:50:08.003Z,15.80
2017-11-12T06:52:35.679Z,18.50
2017-11-12T06:55:03.163Z,13.90
2017-11-12T06:57:30.625Z,15.33
2017-11-12T06:59:58.106Z,16.63
2017-11-12T07:02:25.598Z,12.40
2017-11-12T07:04:53.127Z,12.53
2017-11-12T07:07:20.718Z,11.77
2017-11-12T07:09:48.179Z,12.40
2017-11-12T07:12:15.635Z,12.40
2017-11-12T07:14:43.147Z,15.23
2017-11-12T07:17:10.622Z,10.20
2017-11-12T07:19:38.382Z,10.93
2017-11-12T07:22:05.831Z,10.27
2017-11-12T07:24:33.291Z,10.07
2017-11-12T07:27:00.775Z,15.40
2017-11-12T07:29:28.227Z,11.37
2017-11-12T07:31:55.699Z,7.30
2017-11-12T07:34:23.152Z,8.50
2017-11-12T07:36:50.728Z,8.07
2017-11-12T07:39:18.180Z,9.27
2017-11-12T07:41:45.635Z,8.57
2017-11-12T07:44:13.138Z,8.50
2017-11-12T07:46:40.587Z,7.80
2017-11-12T07:49:08.026Z,8.33
2017-11-12T07:51:35.700Z,7.93
2017-11-12T07:54:03.149Z,8.80
2017-11-12T07:56:30.604Z,10.20
2017-11-12T07:58:58.079Z,8.90
2017-11-12T08:01:25.572Z,8.23
2017-11-12T08:03:53.049Z,7.87
2017-11-12T08:06:20.525Z,9.37
2017-11-12T08:08:47.988Z,7.63
2017-11-12T08:11:15.458Z,9.27
2017-11-12T08:13:42.925Z,10.77
2017-11-12T08:16:10.402Z,14.63
2017-11-12T08:18:38.063Z,9.73
2017-11-12T08:21:05.524Z,15.83
2017-11-12T08:23:32.986Z,13.03
2017-11-12T08:26:00.483Z,11.87
2017-11-12T08:28:27.934Z,11.10
2017-11-12T08:30:55.394Z,10.47
2017-11-12T08:33:22.881Z,9.23
2017-11-12T08:35:50.334Z,8.07
2017-11-12T08:38:17.809Z,8.97
2017-11-12T08:40:45.264Z,9.33
2017-11-12T08:43:12.756Z,12.90
2017-11-12T08:45:40.215Z,11.00
2017-11-12T08:48:07.710Z,11.40
2017-11-12T08:50:35.176Z,14.90
2017-11-12T08:53:02.636Z,13.90
2017-11-12T08:55:30.102Z,7.23
2017-11-12T08:57:57.582Z,4.97
2017-11-12T09:00:25.062Z,7.00
2017-11-12T09:02:52.510Z,8.80
2017-11-12T09:05:19.967Z,6.87
2017-11-12T09:07:47.453Z,10.30
2017-11-12T09:10:14.921Z,6.33
2017-11-12T09:12:42.400Z,4.97
2017-11-12T09:15:09.849Z,5.27
2017-11-12T09:17:37.322Z,5.73
2017-11-12T09:20:04.778Z,7.17
2017-11-12T09:22:32.256Z,1.47
2017-11-12T09:25:00.098Z,11.90
2017-11-12T09:27:27.554Z,4.53
2017-11-12T09:29:55.000Z,2.43
2017-11-12T09:32:22.474Z,3.60
2017-11-12T09:34:49.940Z,2.90
2017-11-12T09:37:17.411Z,2.80
2017-11-12T09:39:44.890Z,8.80
2017-11-12T09:42:12.367Z,5.70
2017-11-12T09:44:39.843Z,4.13
2017-11-12T09:47:07.303Z,6.10
2017-11-12T09:49:34.778Z,6.63
2017-11-12T09:52:02.247Z,4.43
2017-11-12T09:54:29.727Z,4.63
2017-11-12T09:56:57.182Z,4.27
2017-11-12T09:59:24.631Z,5.00
2017-11-12T10:01:52.102Z,6.53
2017-11-12T10:04:19.555Z,3.77
2017-11-12T10:06:47.001Z,3.13
2017-11-12T10:09:14.472Z,3.47
2017-11-12T10:11:41.922Z,3.33
2017-11-12T10:14:09.399Z,8.90
2017-11-12T10:16:36.863Z,5.23
2017-11-12T10:19:04.331Z,2.73
2017-11-12T10:21:31.799Z,5.03
2017-11-12T10:23:59.250Z,3.30
2017-11-12T10:26:27.042Z,2.70
2017-11-12T10:28:54.490Z,9.87
2017-11-12T10:31:21.971Z,13.70
2017-11-12T10:33:49.414Z,5.30
2017-11-12T10:36:16.913Z,5.27
2017-11-12T10:38:44.361Z,6.50
2017-11-12T10:41:11.823Z,8.73
2017-11-12T10:43:39.315Z,10.33
2017-11-12T10:46:06.789Z,10.30
2017-11-12T10:48:34.238Z,7.50
2017-11-12T10:51:01.719Z,12.77
2017-11-12T10:53:29.167Z,7.00
2017-11-12T10:55:57.044Z,7.77
2017-11-12T10:58:24.503Z,19.03
2017-11-12T11:00:51.955Z,8.70
2017-11-12T11:03:19.430Z,6.93
2017-11-12T11:05:46.927Z,6.90
2017-11-12T11:08:14.388Z,5.30
2017-11-12T11:10:41.848Z,5.57
2017-11-12T11:13:09.342Z,7.13
2017-11-12T11:15:36.792Z,7.00
2017-11-12T11:18:04.257Z,12.10
2017-11-12T11:20:32.652Z,12.70
2017-11-12T11:23:00.104Z,12.63
2017-11-12T11:25:27.567Z,10.10
2017-11-12T11:27:55.042Z,16.33
2017-11-12T11:30:22.486Z,10.20
2017-11-12T11:32:49.956Z,9.80
2017-11-12T11:35:17.411Z,11.23
2017-11-12T11:37:44.871Z,10.10
2017-11-12T11:40:12.348Z,13.00
2017-11-12T11:42:39.822Z,12.23
2017-11-12T11:45:07.270Z,9.50
2017-11-12T11:47:34.748Z,8.57
2017-11-12T11:50:02.196Z,8.13
2017-11-12T11:52:29.675Z,7.53
2017-11-12T11:54:57.149Z,6.53
2017-11-12T11:57:24.640Z,3.53
2017-11-12T11:59:52.092Z,4.13
2017-11-12T12:02:19.575Z,5.33
2017-11-12T12:04:47.018Z,4.93
2017-11-12T12:07:14.480Z,3.57
2017-11-12T12:09:41.965Z,7.00
2017-11-12T12:12:09.417Z,2.30
2017-11-12T12:14:36.889Z,5.90
2017-11-12T12:17:04.347Z,2.67
2017-11-12T12:19:31.826Z,2.37
2017-11-12T12:21:59.310Z,4.40
2017-11-12T12:24:26.770Z,3.50
2017-11-12T12:26:54.286Z,4.03
2017-11-12T12:29:21.776Z,3.63
2017-11-12T12:31:49.247Z,3.53
2017-11-12T12:34:16.702Z,4.17
2017-11-12T12:36:44.172Z,5.33
2017-11-12T12:39:11.647Z,5.63
2017-11-12T12:41:39.098Z,5.73
2017-11-12T12:44:07.536Z,5.77
2017-11-12T12:46:35.019Z,12.43
2017-11-12T12:49:02.475Z,7.10
2017-11-12T12:51:29.954Z,10.27
2017-11-12T12:53:57.415Z,6.57
2017-11-12T12:56:24.890Z,7.50
2017-11-12T12:58:52.341Z,8.50
2017-11-12T13:01:19.790Z,6.97
2017-11-12T13:03:47.263Z,7.83
2017-11-12T13:06:14.714Z,10.52
2017-11-12T13:08:42.211Z,11.63
2017-11-12T13:11:09.830Z,8.73
2017-11-12T13:13:37.317Z,8.73
2017-11-12T13:16:04.790Z,9.50
2017-11-12T13:18:32.255Z,7.80
2017-11-12T13:20:59.730Z,7.97
2017-11-12T13:23:27.195Z,7.20
2017-11-12T13:25:54.659Z,9.90
2017-11-12T13:28:22.123Z,15.43
2017-11-12T13:30:49.600Z,8.03
2017-11-12T13:33:17.087Z,11.60
2017-11-12T13:35:44.543Z,7.67
2017-11-12T13:38:12.015Z,6.37
2017-11-12T13:40:39.476Z,6.10
2017-11-12T13:43:06.959Z,5.83
2017-11-12T13:45:34.417Z,7.77
2017-11-12T13:48:01.912Z,8.67
2017-11-12T13:50:29.361Z,9.30
2017-11-12T13:52:56.846Z,16.13
2017-11-12T13:55:24.359Z,12.60
2017-11-12T13:57:51.812Z,11.43
2017-11-12T14:00:19.282Z,12.80
2017-11-12T14:02:46.767Z,15.43
2017-11-12T14:05:14.230Z,14.50
2017-11-12T14:07:41.715Z,14.53
2017-11-12T14:10:09.207Z,12.90
2017-11-12T14:12:36.679Z,14.40
2017-11-12T14:15:04.144Z,14.53
2017-11-12T14:17:31.626Z,9.97
2017-11-12T14:19:59.102Z,15.60
2017-11-12T14:22:26.567Z,15.10
2017-11-12T14:24:54.055Z,14.40
2017-11-12T14:27:21.551Z,18.00
2017-11-12T14:29:49.029Z,19.83
2017-11-12T14:32:16.487Z,14.10
2017-11-12T14:34:43.951Z,21.07
2017-11-12T14:37:11.432Z,13.47
2017-11-12T14:39:38.891Z,12.07
2017-11-12T14:42:06.380Z,16.77
2017-11-12T14:44:33.847Z,18.43
2017-11-12T14:47:01.325Z,15.82
2017-11-12T14:49:28.809Z,20.58
2017-11-12T14:51:56.303Z,19.40
2017-11-12T14:54:24.521Z,21.65
2017-11-12T14:56:52.156Z,20.33
2017-11-12T14:59:19.691Z,21.12
2017-11-12T15:01:47.150Z,20.35
2017-11-12T15:04:15.406Z,19.52
2017-11-12T15:06:43.572Z,17.45
2017-11-12T15:09:11.091Z,19.48
2017-11-12T15:11:38.576Z,15.30
2017-11-12T15:14:06.382Z,19.08
2017-11-12T15:16:34.907Z,25.23
2017-11-12T15:19:02.361Z,15.57
2017-11-12T15:21:29.840Z,14.70
2017-11-12T15:23:57.315Z,18.87
2017-11-12T15:26:24.789Z,17.77
2017-11-12T15:28:52.271Z,13.95
2017-11-12T15:31:19.741Z,15.45
2017-11-12T15:33:47.662Z,18.17
2017-11-12T15:36:15.133Z,15.40
2017-11-12T15:38:42.676Z,15.33
2017-11-12T15:41:10.719Z,18.20
2017-11-12T15:43:38.203Z,15.68
2017-11-12T15:46:05.661Z,12.07
2017-11-12T15:48:33.855Z,11.80
2017-11-12T15:51:01.362Z,12.87
2017-11-12T15:53:28.830Z,12.50
2017-11-12T15:55:56.319Z,17.12
2017-11-12T15:58:24.454Z,19.00
2017-11-12T16:00:51.907Z,17.97
2017-11-12T16:03:19.387Z,15.20
2017-11-12T16:05:46.850Z,18.02
2017-11-12T16:08:14.650Z,18.62
2017-11-12T16:10:42.110Z,14.83
2017-11-12T16:13:09.591Z,17.85
2017-11-12T16:15:37.274Z,13.37
2017-11-12T16:18:04.799Z,20.77
2017-11-12T16:20:32.970Z,26.25
2017-11-12T16:23:00.432Z,20.57
2017-11-12T16:25:27.912Z,16.27
2017-11-12T16:27:55.510Z,20.17
2017-11-12T16:30:23.018Z,16.00
2017-11-12T16:32:50.473Z,16.27
2017-11-12T16:35:17.936Z,18.97
2017-11-12T16:37:45.619Z,23.00
2017-11-12T16:40:13.134Z,28.03
2017-11-12T16:42:40.623Z,22.80
2017-11-12T16:45:08.087Z,29.20
2017-11-12T16:47:35.566Z,33.03
2017-11-12T16:50:03.029Z,19.80
2017-11-12T16:52:30.764Z,20.23
2017-11-12T16:54:58.247Z,21.00
2017-11-12T16:57:25.712Z,20.00
2017-11-12T16:59:53.663Z,22.80
2017-11-12T17:02:21.198Z,25.70
2017-11-12T17:04:48.679Z,21.35
2017-11-12T17:07:16.172Z,21.80
2017-11-12T17:09:43.655Z,31.60
2017-11-12T17:12:11.839Z,26.02
2017-11-12T17:14:40.235Z,25.58
2017-11-12T17:17:07.816Z,17.53
2017-11-12T17:19:35.310Z,25.88
2017-11-12T17:22:03.028Z,23.98
2017-11-12T17:24:32.293Z,27.48
2017-11-12T17:26:59.788Z,25.83
2017-11-12T17:29:27.253Z,26.85
2017-11-12T17:31:54.756Z,26.37
2017-11-12T17:34:22.223Z,16.47
2017-11-12T17:36:50.378Z,16.70
2017-11-12T17:39:18.822Z,19.73
2017-11-12T17:41:47.197Z,19.57
2017-11-12T17:44:14.695Z,29.85
2017-11-12T17:46:42.151Z,36.42
2017-11-12T17:49:09.759Z,36.13
2017-11-12T17:51:37.252Z,31.75
2017-11-12T17:54:04.711Z,37.05
2017-11-12T17:56:32.190Z,28.67
2017-11-12T17:59:00.682Z,20.30
2017-11-12T18:01:28.236Z,10.20
2017-11-12T18:03:55.699Z,9.65
2017-11-12T18:06:23.179Z,12.95
2017-11-12T18:08:51.537Z,16.50
2017-11-12T18:11:19.027Z,18.17
2017-11-12T18:13:46.515Z,11.23
2017-11-12T18:16:14.020Z,13.70
2017-11-12T18:18:41.504Z,10.17
2017-11-12T18:21:09.007Z,11.80
2017-11-12T18:23:36.486Z,12.07
2017-11-12T18:26:04.019Z,15.20
2017-11-12T18:28:31.508Z,9.88
2017-11-12T18:30:59.000Z,12.95
2017-11-12T18:33:26.494Z,6.60
2017-11-12T18:35:53.946Z,1.43
2017-11-12T18:38:21.610Z,4.70
2017-11-12T18:40:49.110Z,6.77
2017-11-12T18:43:16.561Z,6.83
2017-11-12T18:45:44.029Z,24.37
2017-11-12T18:48:11.509Z,4.40
2017-11-12T18:50:39.004Z,5.67
2017-11-12T18:53:06.468Z,3.17
2017-11-12T18:55:34.772Z,2.80
2017-11-12T19:01:10.125Z,2.40
2017-11-12T19:03:48.159Z,0.83
2017-11-12T19:06:21.122Z,1.10
2017-11-12T19:08:51.112Z,1.00
2017-11-12T19:11:18.569Z,1.10
2017-11-12T19:13:46.166Z,0.77
2017-11-12T19:16:13.633Z,1.33
2017-11-12T19:18:43.475Z,3.53
2017-11-12T19:21:13.377Z,1.20
2017-11-12T19:23:43.230Z,0.80
2017-11-12T19:26:11.529Z,0.57
2017-11-12T19:28:39.027Z,1.00
2017-11-12T19:31:06.503Z,0.80
2017-11-12T19:33:33.961Z,0.97
2017-11-12T19:36:01.537Z,0.73
2017-11-12T19:38:29.022Z,4.50
2017-11-12T19:40:56.492Z,0.50
2017-11-12T19:43:23.975Z,1.13
2017-11-12T19:45:51.456Z,0.60
2017-11-12T19:48:18.959Z,0.40
2017-11-12T19:50:46.452Z,0.50
2017-11-12T19:53:13.923Z,0.40
2017-11-12T19:55:41.403Z,0.40
2017-11-12T19:58:08.916Z,1.53
2017-11-12T20:00:36.376Z,1.87
2017-11-12T20:03:03.834Z,0.53
2017-11-12T20:05:31.594Z,0.80
2017-11-12T20:07:59.055Z,0.60
2017-11-12T20:10:26.534Z,0.93
2017-11-12T20:12:54.016Z,1.33
2017-11-12T20:15:21.480Z,0.83
2017-11-12T20:17:48.987Z,1.17
2017-11-12T20:20:16.453Z,0.70
2017-11-12T20:22:43.925Z,0.60
2017-11-12T20:25:11.421Z,1.27
2017-11-12T20:27:38.889Z,0.70
2017-11-12T20:30:06.409Z,0.60
2017-11-12T20:32:33.887Z,1.87
2017-11-12T20:35:01.428Z,0.50
2017-11-12T20:37:28.933Z,0.60
2017-11-12T20:39:56.404Z,0.70
2017-11-12T20:42:23.888Z,0.60
2017-11-12T20:44:51.518Z,0.65
2017-11-12T20:47:19.083Z,0.60
2017-11-12T20:49:46.556Z,0.60
2017-11-12T20:52:14.131Z,0.60
2017-11-12T20:54:41.706Z,0.50
2017-11-12T20:57:10.075Z,0.90
2017-11-12T20:59:37.536Z,2.05
2017-11-12T21:02:05.110Z,0.70
2017-11-12T21:04:32.576Z,0.80
2017-11-12T21:07:00.156Z,1.90
2017-11-12T21:09:27.617Z,0.60
2017-11-12T21:11:55.087Z,1.45
2017-11-12T21:14:22.915Z,0.90
2017-11-12T21:16:50.367Z,0.70
2017-11-12T21:19:21.684Z,0.80
2017-11-12T21:22:04.963Z,1.10
2017-11-12T21:24:37.679Z,0.75
2017-11-12T21:30:14.179Z,1.30
2017-11-12T21:32:46.136Z,1.00
2017-11-12T21:35:16.068Z,1.10
2017-11-12T21:37:44.051Z,0.90
2017-11-12T21:40:11.727Z,0.80
2017-11-12T21:42:42.410Z,1.23
2017-11-12T21:45:09.883Z,0.70
2017-11-12T21:47:37.330Z,0.60
2017-11-12T21:50:05.035Z,0.83
2017-11-12T21:52:32.497Z,1.70
2017-11-12T21:54:59.942Z,1.17
2017-11-12T21:57:27.726Z,1.25
2017-11-12T21:59:55.218Z,1.15
2017-11-12T22:02:23.247Z,1.20
2017-11-12T22:04:50.704Z,1.13
2017-11-12T22:07:18.195Z,1.67
2017-11-12T22:09:45.654Z,1.50
2017-11-12T22:12:13.111Z,1.40
2017-11-12T22:14:40.579Z,1.58
2017-11-12T22:17:08.038Z,1.58
2017-11-12T22:19:35.492Z,0.80
2017-11-12T22:22:03.236Z,1.80
2017-11-12T22:24:30.677Z,1.70
2017-11-12T22:26:58.120Z,2.53
2017-11-12T22:29:25.770Z,1.53
2017-11-12T22:31:53.225Z,1.93
2017-11-12T22:34:20.897Z,1.63
2017-11-12T22:36:48.639Z,2.30
2017-11-12T22:39:16.082Z,2.40
2017-11-12T22:41:43.815Z,1.93
2017-11-12T22:44:11.260Z,9.10
2017-11-12T22:46:38.743Z,2.73
2017-11-12T22:49:06.205Z,2.40
2017-11-12T22:51:33.679Z,2.10
2017-11-12T22:54:01.150Z,1.60
2017-11-12T22:56:28.606Z,2.80
2017-11-12T22:58:56.056Z,3.83
2017-11-12T23:01:23.532Z,2.53
2017-11-12T23:03:50.999Z,5.00
2017-11-12T23:06:18.455Z,1.90
2017-11-12T23:08:45.930Z,2.83
2017-11-12T23:11:13.386Z,2.23
2017-11-12T23:13:40.868Z,2.23
2017-11-12T23:16:08.317Z,2.67
2017-11-12T23:18:35.769Z,2.30
2017-11-12T23:21:03.247Z,4.50
2017-11-12T23:23:30.710Z,2.60
2017-11-12T23:25:58.175Z,2.47
2017-11-12T23:28:25.702Z,1.77
2017-11-12T23:30:53.170Z,2.47
2017-11-12T23:33:20.649Z,4.20
2017-11-12T23:35:48.118Z,2.43
2017-11-12T23:38:15.594Z,2.60
2017-11-12T23:40:43.064Z,1.63
2017-11-12T23:43:10.521Z,3.40
2017-11-12T23:45:37.998Z,3.10
2017-11-12T23:48:05.443Z,4.07
2017-11-12T23:50:32.927Z,3.87
2017-11-12T23:53:00.397Z,5.40
2017-11-12T23:55:27.865Z,3.30
2017-11-12T23:57:55.338Z,3.07
